Time;durP1;ratioP1;P1;durP2;ratioP2;P2;SDS_P1;SDS_P2;PMS_P1;PMS_P2;Temp;Humidity;BMP_temperature;BMP_pressure;BME280_temperature;BME280_humidity;BME280_pressure;Samples;Min_cycle;Max_cycle;Signal;HPM_P1;HPM_P2
2022/12/07 00:01:42;;;;;;;24.73;11.32;;;4.80;99.90;;;;;;6162714;23;20226;-76
2022/12/07 00:04:12;;;;;;;31.67;12.27;;;5.80;99.90;;;;;;6160940;23;20009;-75
2022/12/07 00:06:42;;;;;;;29.17;12.38;;;5.00;99.90;;;;;;6198023;23;20017;-75
2022/12/07 00:09:13;;;;;;;22.15;11.63;;;6.10;99.90;;;;;;6188044;23;20020;-75
2022/12/07 00:11:41;;;;;;;29.58;12.18;;;5.20;99.90;;;;;;6160708;23;20021;-75
2022/12/07 00:14:12;;;;;;;30.45;12.45;;;7.00;99.90;;;;;;6162355;23;20027;-75
2022/12/07 00:16:40;;;;;;;32.38;11.55;;;4.90;99.90;;;;;;6196561;23;20017;-76
2022/12/07 00:19:10;;;;;;;31.70;12.63;;;4.80;99.90;;;;;;6188040;23;20016;-76
2022/12/07 00:21:38;;;;;;;29.58;11.30;;;4.80;99.90;;;;;;6187512;23;20013;-75
2022/12/07 00:24:06;;;;;;;30.88;11.38;;;4.80;99.90;;;;;;6186701;23;20024;-75
2022/12/07 00:26:34;;;;;;;;;;;4.80;99.90;;;;;;6198596;23;20024;-76
2022/12/07 00:29:11;;;;;;;27.50;11.00;;;4.80;99.90;;;;;;6137306;23;19920;-75
2022/12/07 00:31:38;;;;;;;26.05;11.27;;;4.80;99.90;;;;;;6170616;23;20024;-76
2022/12/07 00:34:11;;;;;;;27.02;11.80;;;6.40;99.90;;;;;;6188274;23;20081;-76
2022/12/07 00:36:38;;;;;;;29.02;11.68;;;4.80;99.90;;;;;;6196630;23;20437;-75
2022/12/07 00:39:06;;;;;;;31.45;11.63;;;5.30;99.90;;;;;;6188217;23;20013;-75
2022/12/07 00:41:34;;;;;;;24.63;10.55;;;5.30;99.90;;;;;;6188048;23;20016;-76
2022/12/07 00:44:02;;;;;;;28.98;11.43;;;4.80;99.90;;;;;;6186450;23;20419;-75
2022/12/07 00:46:30;;;;;;;30.15;11.85;;;6.00;99.90;;;;;;6197838;23;20013;-75
2022/12/07 00:48:57;;;;;;;32.10;11.90;;;4.80;99.90;;;;;;6188150;23;20020;-75
2022/12/07 00:51:26;;;;;;;30.75;11.20;;;4.80;99.90;;;;;;6186394;23;20013;-76
2022/12/07 00:53:54;;;;;;;31.85;11.10;;;4.80;99.90;;;;;;6161900;23;20325;-76
2022/12/07 00:56:26;;;;;;;25.30;11.27;;;4.80;99.90;;;;;;6166290;23;20020;-75
2022/12/07 00:58:55;;;;;;;27.42;10.75;;;5.50;99.90;;;;;;6198097;23;20024;-74
2022/12/07 01:01:24;;;;;;;26.60;11.20;;;4.70;99.90;;;;;;6187564;23;20017;-74
2022/12/07 01:03:53;;;;;;;21.55;10.50;;;5.80;99.90;;;;;;6160759;23;20036;-77
2022/12/07 01:06:21;;;;;;;;;;;4.60;99.90;;;;;;6162340;23;20017;-74
2022/12/07 01:08:49;;;;;;;28.42;10.15;;;4.60;99.90;;;;;;6162069;23;20321;-75
2022/12/07 01:11:20;;;;;;;28.42;10.73;;;4.60;99.90;;;;;;6186274;23;20444;-74
2022/12/07 01:13:50;;;;;;;26.65;10.38;;;4.50;99.90;;;;;;6171551;23;20013;-76
2022/12/07 01:16:18;;;;;;;28.83;10.32;;;4.50;99.90;;;;;;6170038;23;20429;-77
2022/12/07 01:18:48;;;;;;;29.88;11.18;;;4.50;99.90;;;;;;6137241;23;20021;-75
2022/12/07 01:21:20;;;;;;;29.63;11.80;;;4.50;99.90;;;;;;6186309;23;20020;-75
2022/12/07 01:23:48;;;;;;;25.88;10.55;;;4.50;99.90;;;;;;6195563;23;20009;-75
2022/12/07 01:26:19;;;;;;;30.38;11.05;;;4.40;99.90;;;;;;6172328;23;20017;-75
2022/12/07 01:28:46;;;;;;;26.70;10.68;;;5.10;99.90;;;;;;6188189;23;20040;-75
2022/12/07 01:31:17;;;;;;;29.35;10.63;;;4.40;99.90;;;;;;6186452;23;20013;-75
2022/12/07 01:33:48;;;;;;;27.27;11.30;;;4.40;99.90;;;;;;6197361;23;20025;-75
2022/12/07 01:36:16;;;;;;;27.48;10.25;;;5.40;99.90;;;;;;6170865;23;20311;-74
2022/12/07 01:38:46;;;;;;;37.92;11.75;;;4.30;99.90;;;;;;6137439;23;20017;-76
2022/12/07 01:41:14;;;;;;;24.65;10.60;;;4.20;99.90;;;;;;6161974;23;20027;-76
2022/12/07 01:44:12;;;;;;;22.48;10.65;;;4.30;99.90;;;;;;6135323;23;20028;-75
2022/12/07 01:46:40;;;;;;;;;;;4.30;99.90;;;;;;6171800;23;20013;-75
2022/12/07 01:49:14;;;;;;;26.50;9.73;;;4.30;99.90;;;;;;6188055;23;19916;-76
2022/12/07 01:55:24;;;;;;;23.17;10.77;;;4.30;99.90;;;;;;6136687;23;20020;-76
2022/12/07 01:57:54;;;;;;;31.33;11.07;;;4.40;99.90;;;;;;6135149;23;20025;-75
2022/12/07 02:00:22;;;;;;;27.33;11.20;;;3.40;99.90;;;;;;6161969;23;20017;-75
2022/12/07 02:02:59;;;;;;;26.88;11.85;;;4.10;99.90;;;;;;6186389;23;20065;-75
2022/12/07 02:05:28;;;;;;;29.38;11.30;;;5.20;99.90;;;;;;6196185;23;20020;-76
2022/12/07 02:07:57;;;;;;;31.92;11.60;;;4.00;99.90;;;;;;6187263;23;20013;-75
2022/12/07 02:10:28;;;;;;;26.85;11.93;;;5.20;99.90;;;;;;6185828;23;20013;-76
2022/12/07 02:13:04;;;;;;;31.10;12.18;;;4.00;99.90;;;;;;6197338;23;20065;-76
2022/12/07 02:15:46;;;;;;;29.67;11.80;;;3.90;99.90;;;;;;6171427;23;20013;-76
2022/12/07 02:18:35;;;;;;;28.58;12.15;;;3.90;99.90;;;;;;6195713;23;20013;-76
2022/12/07 02:21:29;;;;;;;37.80;12.60;;;3.80;99.90;;;;;;6137484;23;20027;-76
2022/12/07 02:24:22;;;;;;;29.83;11.68;;;3.80;99.90;;;;;;6102890;23;20013;-75
2022/12/07 02:27:13;;;;;;;36.33;13.25;;;3.70;99.90;;;;;;6171319;23;20024;-75
2022/12/07 02:29:49;;;;;;;37.20;13.25;;;3.70;99.90;;;;;;6195954;23;20013;-75
2022/12/07 02:32:24;;;;;;;35.78;13.30;;;4.70;99.90;;;;;;6197272;23;20024;-75
2022/12/07 02:39:06;;;;;;;;;;;3.50;99.90;;;;;;6161775;23;20013;-76
2022/12/07 02:41:40;;;;;;;30.63;13.07;;;3.30;99.90;;;;;;6171347;23;20336;-76
2022/12/07 02:44:12;;;;;;;30.73;13.90;;;4.50;99.90;;;;;;6170823;23;20020;-76
2022/12/07 02:46:50;;;;;;;33.13;14.55;;;3.10;99.90;;;;;;6138463;23;20037;-75
2022/12/07 02:49:19;;;;;;;33.13;15.38;;;3.80;99.90;;;;;;6173114;23;20013;-75
2022/12/07 02:51:46;;;;;;;51.03;16.60;;;3.20;99.90;;;;;;6187465;23;20016;-76
2022/12/07 02:54:19;;;;;;;39.22;16.08;;;3.10;99.90;;;;;;6189170;23;20032;-75
2022/12/07 02:56:49;;;;;;;45.22;16.40;;;3.10;99.90;;;;;;6161726;23;20017;-74
2022/12/07 02:59:45;;;;;;;43.85;17.15;;;3.10;99.90;;;;;;6163338;23;20009;-76
2022/12/07 03:02:28;;;;;;;38.45;15.95;;;3.10;99.90;;;;;;6173008;23;20009;-75
2022/12/07 03:05:40;;;;;;;48.25;16.08;;;3.20;99.90;;;;;;6161422;23;20024;-76
2022/12/07 03:08:07;;;;;;;37.88;15.68;;;3.30;99.90;;;;;;6198584;23;20419;-75
2022/12/07 03:10:47;;;;;;;39.78;16.25;;;3.80;99.90;;;;;;6161740;23;20017;-76
2022/12/07 03:13:41;;;;;;;33.22;15.57;;;3.50;99.90;;;;;;6173066;23;20027;-75
2022/12/07 03:16:17;;;;;;;37.50;15.05;;;3.60;99.90;;;;;;6171557;23;20326;-74
2022/12/07 03:19:03;;;;;;;42.03;15.47;;;4.20;99.90;;;;;;6162635;23;20292;-76
2022/12/07 03:21:55;;;;;;;35.95;14.52;;;5.50;99.90;;;;;;6172722;23;20009;-75
2022/12/07 03:24:28;;;;;;;28.33;12.85;;;3.80;99.90;;;;;;6161601;23;20017;-75
2022/12/07 03:27:04;;;;;;;25.98;13.25;;;3.80;99.90;;;;;;6138093;23;20021;-75
2022/12/07 03:29:37;;;;;;;30.17;12.40;;;3.80;99.90;;;;;;6196015;23;20017;-75
2022/12/07 03:32:20;;;;;;;34.85;13.77;;;3.80;99.90;;;;;;6163068;23;20029;-75
2022/12/07 03:35:08;;;;;;;24.27;12.68;;;3.90;99.90;;;;;;6172824;23;20017;-76
2022/12/07 03:37:49;;;;;;;27.58;12.93;;;3.90;99.90;;;;;;6196950;23;20013;-75
2022/12/07 03:40:39;;;;;;;32.72;13.82;;;3.90;99.90;;;;;;6163086;23;20017;-76
2022/12/07 03:43:07;;;;;;;35.72;14.32;;;3.90;99.90;;;;;;6171648;23;20013;-75
2022/12/07 03:45:41;;;;;;;28.30;14.05;;;3.90;99.90;;;;;;6198340;23;20024;-75
2022/12/07 03:48:21;;;;;;;29.65;13.63;;;4.00;99.90;;;;;;6198195;23;20017;-75
2022/12/07 03:51:28;;;;;;;30.13;13.80;;;4.00;99.90;;;;;;6137037;23;20031;-76
2022/12/07 03:54:38;;;;;;;26.73;12.65;;;4.00;99.90;;;;;;6138939;23;20036;-75
2022/12/07 03:57:07;;;;;;;32.42;13.63;;;4.00;99.90;;;;;;6088564;23;20028;-76
2022/12/07 03:59:35;;;;;;;28.88;13.80;;;4.00;99.90;;;;;;6162583;23;20017;-75
2022/12/07 04:02:05;;;;;;;26.67;12.48;;;4.00;99.90;;;;;;6137880;23;20040;-76
2022/12/07 04:04:34;;;;;;;26.30;11.98;;;4.10;99.90;;;;;;6136473;23;20016;-74
2022/12/07 04:07:02;;;;;;;32.08;12.85;;;4.10;99.90;;;;;;6172230;23;20017;-75
2022/12/07 04:09:29;;;;;;;38.35;12.77;;;4.10;99.90;;;;;;6136360;23;20033;-75
2022/12/07 04:11:57;;;;;;;32.30;12.85;;;4.10;99.90;;;;;;6187719;23;20021;-76
2022/12/07 04:14:24;;;;;;;27.55;13.63;;;2.00;99.90;;;;;;6162133;23;20024;-76
2022/12/07 04:16:58;;;;;;;31.25;13.05;;;4.10;99.90;;;;;;6160978;23;20442;-76
2022/12/07 04:19:31;;;;;;;26.25;13.00;;;4.10;99.90;;;;;;6172303;23;20312;-75
2022/12/07 04:22:00;;;;;;;31.80;12.82;;;5.30;99.90;;;;;;6172497;23;20386;-76
2022/12/07 04:24:29;;;;;;;32.35;13.52;;;4.10;99.90;;;;;;6186570;23;20013;-75
2022/12/07 04:26:56;;;;;;;;;;;4.90;99.90;;;;;;6172692;23;20020;-75
2022/12/07 04:29:24;;;;;;;25.88;12.07;;;4.10;99.90;;;;;;6162493;23;19916;-75
2022/12/07 04:31:52;;;;;;;31.02;12.77;;;4.10;99.90;;;;;;6161991;23;20013;-74
2022/12/07 04:34:20;;;;;;;25.23;12.68;;;4.10;99.90;;;;;;6162025;23;20461;-75
2022/12/07 04:36:48;;;;;;;23.77;11.75;;;4.20;99.90;;;;;;6196851;23;20020;-76
2022/12/07 04:39:28;;;;;;;36.60;12.32;;;4.20;99.90;;;;;;6137553;23;20326;-75
2022/12/07 04:41:56;;;;;;;21.65;11.07;;;4.10;99.90;;;;;;6197840;23;20016;-75
2022/12/07 04:44:25;;;;;;;25.98;11.50;;;4.10;99.90;;;;;;6186444;23;20009;-75
2022/12/07 04:46:53;;;;;;;30.77;11.57;;;4.10;99.90;;;;;;6137759;23;20024;-75
2022/12/07 04:49:21;;;;;;;27.05;12.15;;;4.10;99.90;;;;;;6161691;23;20469;-75
2022/12/07 04:51:49;;;;;;;;;;;4.10;99.90;;;;;;6186934;23;20354;-76
2022/12/07 04:54:17;;;;;;;22.67;11.23;;;4.10;99.90;;;;;;6188241;23;19916;-75
2022/12/07 04:56:44;;;;;;;;;;;4.10;99.90;;;;;;6193672;23;20063;-74
2022/12/07 04:59:13;;;;;;;28.90;12.00;;;4.70;99.90;;;;;;6187983;23;19923;-76
2022/12/07 05:01:41;;;;;;;28.17;12.18;;;4.00;99.90;;;;;;6162273;23;20296;-75
2022/12/07 05:04:09;;;;;;;32.95;12.32;;;4.00;99.90;;;;;;6136449;23;20436;-75
2022/12/07 05:06:37;;;;;;;29.30;12.13;;;4.10;99.90;;;;;;6197345;23;20017;-74
2022/12/07 05:09:04;;;;;;;26.40;12.40;;;4.10;99.90;;;;;;6187768;23;20017;-75
2022/12/07 05:11:38;;;;;;;34.95;12.38;;;5.40;99.90;;;;;;6160156;23;20032;-74
2022/12/07 05:14:10;;;;;;;28.67;11.27;;;4.10;99.90;;;;;;6197689;23;20020;-76
2022/12/07 05:16:39;;;;;;;28.33;9.90;;;4.10;99.90;;;;;;6196069;23;20013;-76
2022/12/07 05:19:07;;;;;;;23.50;9.98;;;4.90;99.90;;;;;;6137181;23;20017;-75
2022/12/07 05:21:35;;;;;;;22.77;10.30;;;4.10;99.90;;;;;;6186573;23;20013;-75
2022/12/07 05:24:03;;;;;;;;;;;4.50;99.90;;;;;;6186621;23;20009;-75
2022/12/07 05:26:31;;;;;;;21.38;10.20;;;4.10;99.90;;;;;;6171754;23;19923;-75
2022/12/07 05:28:59;;;;;;;27.70;11.15;;;5.20;99.90;;;;;;6136880;23;20028;-75
2022/12/07 05:31:27;;;;;;;21.63;10.52;;;4.40;99.90;;;;;;6186209;23;20013;-74
2022/12/07 05:33:54;;;;;;;;;;;4.00;99.90;;;;;;6188159;23;20454;-76
2022/12/07 05:36:22;;;;;;;21.52;8.40;;;4.00;99.90;;;;;;6196067;23;19923;-75
2022/12/07 05:38:50;;;;;;;20.40;9.05;;;4.00;99.90;;;;;;6161242;23;20315;-75
2022/12/07 05:44:05;;;;;;;25.13;9.23;;;4.00;99.90;;;;;;6135934;23;20017;-75
2022/12/07 05:46:33;;;;;;;22.98;9.30;;;4.00;99.90;;;;;;6197415;23;20009;-75
2022/12/07 05:49:01;;;;;;;22.20;9.77;;;4.20;99.90;;;;;;6161568;23;20441;-74
2022/12/07 05:51:31;;;;;;;25.02;9.52;;;4.00;99.90;;;;;;6196039;23;20023;-75
2022/12/07 05:53:58;;;;;;;23.38;10.23;;;4.00;99.90;;;;;;6188441;23;20318;-75
2022/12/07 05:56:26;;;;;;;20.38;9.32;;;4.00;99.90;;;;;;6135790;23;20265;-74
2022/12/07 06:01:40;;;;;;;24.50;9.55;;;4.00;99.90;;;;;;6161972;23;20036;-75
2022/12/07 06:04:08;;;;;;;17.85;9.55;;;4.00;99.90;;;;;;6184550;23;20013;-74
2022/12/07 06:06:36;;;;;;;22.20;9.10;;;5.10;99.90;;;;;;6171428;23;20012;-74
2022/12/07 06:09:04;;;;;;;20.75;9.13;;;5.60;99.90;;;;;;6161501;23;20453;-75
2022/12/07 06:14:17;;;;;;;20.33;9.82;;;4.00;99.90;;;;;;6172223;23;20021;-75
2022/12/07 06:16:45;;;;;;;21.35;10.10;;;4.00;99.90;;;;;;6195196;23;20422;-75
2022/12/07 06:19:13;;;;;;;23.25;10.27;;;4.00;99.90;;;;;;6161917;23;20322;-75
2022/12/07 06:21:40;;;;;;;23.90;10.40;;;4.10;99.90;;;;;;6189414;23;20464;-75
2022/12/07 06:24:14;;;;;;;24.00;9.75;;;4.10;99.90;;;;;;6187828;23;20013;-75
2022/12/07 06:26:42;;;;;;;20.48;8.77;;;4.10;99.90;;;;;;6163072;23;20013;-75
2022/12/07 06:29:11;;;;;;;21.27;8.20;;;4.10;99.90;;;;;;6163350;23;20457;-74
2022/12/07 06:31:39;;;;;;;20.92;8.75;;;4.10;99.90;;;;;;6137032;23;20031;-75
2022/12/07 06:34:10;;;;;;;23.08;9.45;;;4.10;99.90;;;;;;6189065;23;20017;-76
2022/12/07 06:36:40;;;;;;;24.42;10.05;;;4.10;99.90;;;;;;6161711;23;20044;-75
2022/12/07 06:39:08;;;;;;;24.02;9.35;;;4.10;99.90;;;;;;6113934;23;20437;-74
2022/12/07 06:41:37;;;;;;;22.02;9.60;;;4.10;99.90;;;;;;6188911;23;20017;-75
2022/12/07 06:44:06;;;;;;;22.02;9.55;;;6.40;99.90;;;;;;6161932;23;20315;-75
2022/12/07 06:46:35;;;;;;;19.42;9.10;;;4.10;99.90;;;;;;6198001;23;20024;-75
2022/12/07 06:49:04;;;;;;;22.55;9.93;;;5.80;99.90;;;;;;6162933;23;20017;-74
2022/12/07 06:51:33;;;;;;;21.83;9.25;;;6.10;99.90;;;;;;6161443;23;20021;-76
2022/12/07 06:54:00;;;;;;;22.52;9.75;;;4.10;99.90;;;;;;6188797;23;20013;-74
2022/12/07 06:56:28;;;;;;;24.65;10.52;;;4.10;99.90;;;;;;6171237;23;20418;-76
2022/12/07 06:58:56;;;;;;;24.83;9.95;;;4.10;99.90;;;;;;6138379;23;20468;-75
2022/12/07 07:01:23;;;;;;;22.80;10.40;;;5.40;99.90;;;;;;6163327;23;20013;-75
2022/12/07 07:03:52;;;;;;;24.48;10.23;;;5.90;99.90;;;;;;6187449;23;20418;-75
2022/12/07 07:06:19;;;;;;;23.40;11.10;;;4.70;99.90;;;;;;6173343;23;20414;-75
2022/12/07 07:08:47;;;;;;;24.48;10.23;;;4.10;99.90;;;;;;6189366;23;20013;-74
2022/12/07 07:11:15;;;;;;;26.80;10.32;;;4.10;99.90;;;;;;6187455;23;20024;-74
2022/12/07 07:13:42;;;;;;;20.60;10.57;;;4.10;99.90;;;;;;6162970;23;20025;-75
2022/12/07 07:16:10;;;;;;;23.40;10.82;;;4.10;99.90;;;;;;6171398;23;20024;-74
2022/12/07 07:18:38;;;;;;;25.95;10.63;;;6.30;99.90;;;;;;6188501;23;20310;-75
2022/12/07 07:21:05;;;;;;;27.73;11.88;;;4.40;99.90;;;;;;6163485;23;20021;-75
2022/12/07 07:23:33;;;;;;;22.85;10.93;;;4.00;99.90;;;;;;6186265;23;20016;-74
2022/12/07 07:26:00;;;;;;;27.73;10.82;;;4.10;99.90;;;;;;6197807;23;20020;-75
2022/12/07 07:28:28;;;;;;;31.08;11.55;;;4.10;99.90;;;;;;6188573;23;20319;-76
2022/12/07 07:30:55;;;;;;;33.95;11.88;;;4.10;99.90;;;;;;6161537;23;20620;-75
2022/12/07 07:33:23;;;;;;;26.60;11.88;;;5.30;99.90;;;;;;6162905;23;20010;-75
2022/12/07 07:35:50;;;;;;;28.58;10.80;;;4.10;99.90;;;;;;6163104;23;20024;-74
2022/12/07 07:38:18;;;;;;;21.80;10.82;;;4.10;99.90;;;;;;6161023;23;20017;-75
2022/12/07 07:40:45;;;;;;;26.90;11.98;;;4.00;99.90;;;;;;6162789;23;20021;-75
2022/12/07 07:43:13;;;;;;;28.45;10.88;;;4.90;99.90;;;;;;6161205;23;20020;-75
2022/12/07 07:45:41;;;;;;;27.88;10.80;;;4.10;99.90;;;;;;6198197;23;20009;-75
2022/12/07 07:48:08;;;;;;;25.08;11.23;;;4.00;99.90;;;;;;6162311;23;20024;-74
2022/12/07 07:50:36;;;;;;;26.40;12.23;;;4.00;99.90;;;;;;6161311;23;20441;-75
2022/12/07 07:53:03;;;;;;;30.52;12.07;;;4.00;99.90;;;;;;6162761;23;20438;-74
2022/12/07 07:55:31;;;;;;;23.83;11.10;;;4.00;99.90;;;;;;6162558;23;20020;-75
2022/12/07 07:57:58;;;;;;;24.90;11.40;;;4.00;99.90;;;;;;6186541;23;20072;-75
2022/12/07 08:00:26;;;;;;;25.08;11.55;;;4.00;99.90;;;;;;6137656;23;20020;-74
2022/12/07 08:02:53;;;;;;;28.83;12.30;;;4.10;99.90;;;;;;6186912;23;20017;-75
2022/12/07 08:05:21;;;;;;;28.85;11.15;;;4.00;99.90;;;;;;6162877;23;20009;-75
2022/12/07 08:07:49;;;;;;;32.47;12.05;;;5.50;99.90;;;;;;6172471;23;20020;-75
2022/12/07 08:10:17;;;;;;;;;;;4.00;99.90;;;;;;6187279;23;20433;-75
2022/12/07 08:15:37;;;;;;;27.08;11.10;;;4.00;99.90;;;;;;6198167;23;20013;-75
2022/12/07 08:18:05;;;;;;;26.85;11.82;;;4.40;99.90;;;;;;6196691;23;20013;-74
2022/12/07 08:20:34;;;;;;;29.27;10.82;;;4.00;99.90;;;;;;6162156;23;20024;-75
2022/12/07 08:23:02;;;;;;;27.63;11.07;;;4.10;99.90;;;;;;6136134;23;20446;-74
2022/12/07 08:25:30;;;;;;;22.73;10.35;;;4.00;99.90;;;;;;6197586;23;20429;-77
2022/12/07 08:27:57;;;;;;;23.23;9.57;;;4.00;99.90;;;;;;6162100;23;20009;-77
2022/12/07 08:30:25;;;;;;;25.33;9.57;;;4.00;99.90;;;;;;6160534;23;20021;-76
2022/12/07 08:32:52;;;;;;;20.30;9.90;;;4.30;99.90;;;;;;6187756;23;20325;-77
2022/12/07 08:35:20;;;;;;;25.02;9.63;;;6.00;99.90;;;;;;6161621;23;20021;-77
2022/12/07 08:37:48;;;;;;;;;;;6.10;99.90;;;;;;6170130;23;20013;-76
2022/12/07 08:40:18;;;;;;;22.83;9.50;;;4.10;99.90;;;;;;6187218;23;20316;-77
2022/12/07 08:42:51;;;;;;;21.27;9.48;;;4.10;99.90;;;;;;6146114;23;20013;-78
2022/12/07 08:45:20;;;;;;;23.20;9.02;;;5.50;99.90;;;;;;6161618;23;20013;-77
2022/12/07 08:48:05;;;;;;;25.73;10.25;;;4.30;99.90;;;;;;6171586;23;20012;-78
2022/12/07 08:50:34;;;;;;;21.67;9.52;;;4.20;99.90;;;;;;6196066;23;20449;-78
2022/12/07 08:53:05;;;;;;;;;;;4.20;99.90;;;;;;6161705;23;20434;-77
2022/12/07 08:55:34;;;;;;;22.73;10.07;;;4.30;99.90;;;;;;6196968;23;19920;-78
2022/12/07 08:58:03;;;;;;;21.02;10.02;;;3.90;99.90;;;;;;6186030;23;20021;-77
2022/12/07 09:00:30;;;;;;;18.30;9.82;;;4.30;99.90;;;;;;6136658;23;20322;-74
2022/12/07 09:02:58;;;;;;;24.92;10.75;;;4.50;99.90;;;;;;6160064;23;20024;-76
2022/12/07 09:05:26;;;;;;;22.70;10.90;;;4.30;99.90;;;;;;6186543;23;20020;-79
2022/12/07 09:08:04;;;;;;;;;;;4.60;99.90;;;;;;6172715;23;20326;-78
2022/12/07 09:10:34;;;;;;;23.35;7.93;;;4.30;99.90;;;;;;6160368;23;19943;-79
2022/12/07 09:13:02;;;;;;;17.65;7.55;;;3.30;99.90;;;;;;6187477;23;20017;-80
2022/12/07 09:15:31;;;;;;;22.25;8.02;;;6.10;99.90;;;;;;6157912;23;20084;-78
2022/12/07 09:17:59;;;;;;;20.45;7.35;;;4.30;99.90;;;;;;6184472;23;20013;-81
2022/12/07 09:20:27;;;;;;;20.17;8.20;;;4.90;99.90;;;;;;6159840;23;20017;-82
2022/12/07 09:22:58;;;;;;;;;;;4.60;99.90;;;;;;6159368;23;20017;-80
2022/12/07 09:25:33;;;;;;;19.98;7.75;;;4.50;99.90;;;;;;6171807;23;19920;-79
2022/12/07 09:28:02;;;;;;;20.88;7.45;;;5.60;99.90;;;;;;6172034;23;20302;-80
2022/12/07 09:30:38;;;;;;;13.68;7.07;;;6.40;99.90;;;;;;6173023;23;20021;-81
2022/12/07 09:33:38;;;;;;;17.33;8.15;;;6.70;99.90;;;;;;6161650;23;20017;-80
2022/12/07 09:36:09;;;;;;;16.40;8.25;;;6.50;99.90;;;;;;6170689;23;20020;-81
2022/12/07 09:38:37;;;;;;;19.35;7.65;;;2.30;99.90;;;;;;6171986;23;20017;-80
2022/12/07 09:41:07;;;;;;;17.80;6.90;;;7.10;99.90;;;;;;6112532;23;20051;-82
2022/12/07 09:43:37;;;;;;;16.85;7.47;;;7.00;99.90;;;;;;6160531;23;20013;-82
2022/12/07 09:46:05;;;;;;;24.77;7.38;;;7.00;99.90;;;;;;6137124;23;20021;-81
2022/12/07 09:48:40;;;;;;;;;;;4.70;99.90;;;;;;6161153;23;20013;-80
2022/12/07 09:51:21;;;;;;;18.80;6.15;;;4.20;99.90;;;;;;6170431;23;19923;-81
2022/12/07 09:53:55;;;;;;;18.02;6.93;;;4.50;99.90;;;;;;6137353;23;20434;-81
2022/12/07 09:56:23;;;;;;;18.77;6.97;;;4.30;99.90;;;;;;6137474;23;20021;-81
2022/12/07 09:59:18;;;;;;;16.42;6.22;;;5.90;99.90;;;;;;6187488;23;20025;-81
2022/12/07 10:01:48;;;;;;;22.70;6.60;;;7.20;99.90;;;;;;6174286;23;20018;-82
2022/12/07 10:04:22;;;;;;;22.02;7.05;;;6.40;99.90;;;;;;6186754;23;20032;-80
2022/12/07 10:06:53;;;;;;;18.38;7.18;;;5.80;99.90;;;;;;6173687;23;20009;-79
2022/12/07 10:09:28;;;;;;;18.95;7.43;;;4.30;99.90;;;;;;6174257;23;20020;-79
2022/12/07 10:12:09;;;;;;;26.63;8.30;;;6.70;99.90;;;;;;6139747;23;20024;-82
2022/12/07 10:14:59;;;;;;;19.27;7.47;;;4.50;99.90;;;;;;6173969;23;20009;-79
2022/12/07 10:17:46;;;;;;;23.50;8.45;;;4.40;99.90;;;;;;6163913;23;20028;-82
2022/12/07 10:20:24;;;;;;;21.77;8.20;;;4.30;99.90;;;;;;6173740;23;20013;-82
2022/12/07 10:23:04;;;;;;;20.52;7.75;;;5.80;99.90;;;;;;6197733;23;20012;-80
2022/12/07 10:25:39;;;;;;;24.70;7.65;;;3.60;99.90;;;;;;6199466;23;20418;-81
2022/12/07 10:28:19;;;;;;;21.67;8.50;;;5.80;99.90;;;;;;6173639;23;20013;-81
2022/12/07 10:31:03;;;;;;;21.92;8.20;;;4.50;99.90;;;;;;6137533;23;20017;-81
2022/12/07 10:33:38;;;;;;;21.00;8.15;;;4.30;99.90;;;;;;6162843;23;20453;-82
2022/12/07 10:36:31;;;;;;;15.85;8.55;;;4.50;99.90;;;;;;6137511;23;20021;-80
2022/12/07 10:39:20;;;;;;;19.70;8.73;;;4.50;99.90;;;;;;6139213;23;20434;-82
2022/12/07 10:42:03;;;;;;;18.95;7.65;;;4.40;99.90;;;;;;6173066;23;20021;-83
2022/12/07 10:44:32;;;;;;;17.33;7.43;;;6.70;99.90;;;;;;6197729;23;20314;-81
2022/12/07 10:47:22;;;;;;;17.73;6.63;;;7.50;99.90;;;;;;6162805;23;20020;-81
2022/12/07 10:50:17;;;;;;;13.35;6.93;;;6.40;99.90;;;;;;6172197;23;20449;-80
2022/12/07 10:52:57;;;;;;;22.85;7.28;;;4.80;99.90;;;;;;6138681;23;20314;-80
2022/12/07 10:55:48;;;;;;;19.38;7.40;;;4.80;99.90;;;;;;6139468;23;20327;-81
2022/12/07 10:58:45;;;;;;;18.08;7.22;;;4.80;99.90;;;;;;6189205;23;20058;-81
2022/12/07 11:01:34;;;;;;;16.92;7.25;;;5.20;99.90;;;;;;6198963;23;20395;-80
2022/12/07 11:04:30;;;;;;;20.52;6.78;;;4.80;99.90;;;;;;6197591;23;20013;-80
2022/12/07 11:07:15;;;;;;;24.55;7.53;;;6.80;99.90;;;;;;6198748;23;20009;-80
2022/12/07 11:10:05;;;;;;;20.58;7.25;;;4.20;99.90;;;;;;6197586;23;20017;-79
2022/12/07 11:13:07;;;;;;;16.80;6.50;;;4.50;99.90;;;;;;6198969;23;20423;-79
2022/12/07 11:16:03;;;;;;;18.35;6.97;;;5.00;99.90;;;;;;6163021;23;20017;-82
2022/12/07 11:19:14;;;;;;;;;;;;;;;;;;;;;
2022/12/07 11:22:13;;;;;;;17.35;6.85;;;5.10;99.90;;;;;;6162280;23;20492;-80
2022/12/07 11:25:30;;;;;;;21.73;7.10;;;4.10;99.90;;;;;;6197556;23;20013;-80
2022/12/07 11:28:31;;;;;;;21.58;7.13;;;5.20;99.90;;;;;;6138280;23;20017;-81
2022/12/07 11:31:30;;;;;;;19.90;7.30;;;5.40;99.90;;;;;;6169843;23;20020;-80
2022/12/07 11:34:41;;;;;;;22.63;6.82;;;5.90;99.90;;;;;;6155976;23;20036;-80
2022/12/07 11:37:17;;;;;;;21.83;7.47;;;5.20;99.90;;;;;;6137420;23;20299;-81
2022/12/07 11:40:17;;;;;;;20.35;7.63;;;7.20;99.90;;;;;;6162938;23;20021;-79
2022/12/07 11:42:55;;;;;;;17.92;6.63;;;3.40;99.90;;;;;;6152634;23;20422;-79
2022/12/07 11:45:32;;;;;;;17.05;7.57;;;5.10;99.90;;;;;;6163003;23;20017;-79
2022/12/07 11:48:15;;;;;;;17.70;7.30;;;3.90;99.90;;;;;;6138212;23;20041;-79
2022/12/07 11:50:57;;;;;;;17.15;7.15;;;5.10;99.90;;;;;;6161165;23;20040;-81
2022/12/07 11:53:46;;;;;;;15.75;6.60;;;7.70;99.90;;;;;;6173473;23;20021;-78
2022/12/07 11:56:17;;;;;;;17.52;7.18;;;4.60;99.90;;;;;;6197539;23;20441;-80
2022/12/07 11:58:51;;;;;;;17.20;7.60;;;7.30;99.90;;;;;;6162004;23;20036;-80
2022/12/07 12:01:34;;;;;;;16.23;7.10;;;5.20;99.90;;;;;;6198205;23;20446;-80
2022/12/07 12:04:09;;;;;;;22.23;8.43;;;5.20;99.90;;;;;;6136868;23;20028;-79
2022/12/07 12:06:38;;;;;;;21.95;7.75;;;5.30;99.90;;;;;;6148904;23;20437;-81
2022/12/07 12:09:12;;;;;;;19.20;6.70;;;6.90;99.90;;;;;;6162679;23;20322;-77
2022/12/07 12:12:24;;;;;;;22.70;7.70;;;5.30;99.90;;;;;;6145352;23;20023;-80
2022/12/07 12:16:17;;;;;;;20.67;7.72;;;5.20;99.90;;;;;;6168070;23;20414;-84
2022/12/07 12:19:21;;;;;;;15.73;6.72;;;5.10;99.90;;;;;;6188164;23;20013;-81
2022/12/07 12:22:06;;;;;;;19.13;6.72;;;5.10;99.90;;;;;;6162090;23;20338;-78
2022/12/07 12:24:36;;;;;;;16.95;7.63;;;5.10;99.90;;;;;;6159801;23;20330;-79
2022/12/07 12:27:26;;;;;;;17.70;7.38;;;5.10;99.90;;;;;;6171816;23;20025;-76
2022/12/07 12:29:58;;;;;;;19.85;7.20;;;7.20;99.90;;;;;;6196205;23;20020;-79
2022/12/07 12:33:21;;;;;;;18.90;7.78;;;6.50;99.90;;;;;;6160811;23;20021;-80
2022/12/07 12:36:19;;;;;;;19.55;7.60;;;5.60;99.90;;;;;;6133053;23;20020;-79
2022/12/07 12:39:14;;;;;;;21.73;7.57;;;4.70;99.90;;;;;;6186171;23;20021;-80
2022/12/07 12:44:15;;;;;;;14.50;6.28;;;5.60;99.90;;;;;;6196243;23;20068;-80
2022/12/07 12:46:57;;;;;;;19.08;7.38;;;5.00;99.90;;;;;;6161695;23;20013;-79
2022/12/07 12:49:33;;;;;;;20.58;7.60;;;4.50;99.90;;;;;;6197309;23;20013;-78
2022/12/07 12:52:23;;;;;;;20.45;7.82;;;4.40;99.90;;;;;;6197526;23;20017;-80
2022/12/07 12:55:21;;;;;;;20.17;7.43;;;4.20;99.90;;;;;;6147392;23;20036;-80
2022/12/07 12:58:49;;;;;;;21.25;7.55;;;6.40;99.90;;;;;;6145620;23;20024;-78
2022/12/07 13:02:16;;;;;;;17.52;7.60;;;4.30;99.90;;;;;;6126065;23;20018;-79
2022/12/07 13:05:03;;;;;;;19.30;7.97;;;4.10;99.90;;;;;;6138135;23;20439;-78
2022/12/07 13:07:53;;;;;;;16.83;7.65;;;5.30;99.90;;;;;;6130855;23;20022;-78
2022/12/07 13:10:30;;;;;;;19.92;8.32;;;4.30;99.90;;;;;;6166138;23;20028;-77
2022/12/07 13:13:12;;;;;;;20.33;7.95;;;4.20;99.90;;;;;;6107746;23;20021;-77
2022/12/07 13:15:50;;;;;;;18.33;8.52;;;6.70;99.90;;;;;;6142253;23;20020;-77
2022/12/07 13:18:30;;;;;;;27.90;8.80;;;6.60;99.90;;;;;;6165344;23;20017;-76
2022/12/07 13:21:10;;;;;;;25.02;9.40;;;4.10;99.90;;;;;;6131717;23;20014;-78
2022/12/07 13:23:54;;;;;;;21.65;9.02;;;6.70;99.90;;;;;;6130502;23;20029;-77
2022/12/07 13:26:42;;;;;;;21.02;8.35;;;6.80;99.90;;;;;;6106976;23;20028;-78
2022/12/07 13:29:13;;;;;;;23.95;8.93;;;4.30;99.90;;;;;;6141440;23;20020;-78
2022/12/07 13:31:58;;;;;;;22.05;9.93;;;2.70;99.90;;;;;;6141073;23;20022;-79
2022/12/07 13:34:44;;;;;;;30.85;8.95;;;3.70;99.90;;;;;;6142201;23;20018;-77
2022/12/07 13:37:28;;;;;;;21.95;8.20;;;6.70;99.90;;;;;;6105695;23;20021;-80
2022/12/07 13:40:22;;;;;;;23.70;9.20;;;5.70;99.90;;;;;;6107211;23;20036;-79
2022/12/07 13:43:03;;;;;;;24.38;9.25;;;4.20;99.90;;;;;;6140715;23;20404;-80
2022/12/07 13:45:52;;;;;;;19.40;8.55;;;6.20;99.90;;;;;;6131492;23;20028;-80
2022/12/07 13:48:32;;;;;;;25.17;8.13;;;4.40;99.90;;;;;;6142628;23;20451;-78
2022/12/07 13:51:22;;;;;;;22.35;8.40;;;6.30;99.90;;;;;;6103267;23;20018;-78
2022/12/07 13:54:10;;;;;;;27.10;8.85;;;4.50;99.90;;;;;;6129407;23;20014;-80